Time;durP1;ratioP1;P1;durP2;ratioP2;P2;SDS_P1;SDS_P2;PMS_P1;PMS_P2;Temp;Humidity;BMP_temperature;BMP_pressure;BME280_temperature;BME280_humidity;BME280_pressure;Samples;Min_cycle;Max_cycle;Signal;HPM_P1;HPM_P2
2022/05/06 00:01:32;;;;;;;14.13;5.90;;;13.20;99.90;;;;;;5058178;28;20432;-40
2022/05/06 00:03:59;;;;;;;4.77;4.37;;;13.20;99.90;;;;;;5057885;28;20474;-40
2022/05/06 00:06:29;;;;;;;4.90;4.40;;;13.20;99.90;;;;;;5057650;28;20446;-40
2022/05/06 00:08:57;;;;;;;8.53;6.20;;;13.10;99.90;;;;;;5057573;28;20486;-39
2022/05/06 00:11:24;;;;;;;10.07;4.90;;;13.00;99.90;;;;;;5057399;28;20443;-40
2022/05/06 00:13:52;;;;;;;5.00;4.03;;;13.00;99.90;;;;;;5057823;28;20475;-41
2022/05/06 00:16:19;;;;;;;6.00;4.63;;;12.90;99.90;;;;;;5057962;28;20534;-41
2022/05/06 00:18:46;;;;;;;9.57;5.10;;;12.90;99.90;;;;;;5059071;28;20451;-47
2022/05/06 00:21:13;;;;;;;12.13;6.70;;;12.80;99.90;;;;;;5057843;28;20462;-40
2022/05/06 00:23:40;;;;;;;6.90;6.20;;;12.80;99.90;;;;;;5057450;28;20818;-40
2022/05/06 00:26:10;;;;;;;11.60;5.03;;;12.80;99.90;;;;;;5057424;28;20546;-40
2022/05/06 00:28:38;;;;;;;10.03;4.53;;;12.80;99.90;;;;;;5057173;28;20483;-40
2022/05/06 00:31:06;;;;;;;8.67;4.50;;;12.80;99.90;;;;;;5056973;28;20447;-40
2022/05/06 00:33:33;;;;;;;5.30;4.80;;;12.70;99.90;;;;;;5057374;28;20467;-41
2022/05/06 00:36:03;;;;;;;7.73;4.30;;;12.70;99.90;;;;;;5058478;28;20505;-44
2022/05/06 00:38:31;;;;;;;9.87;4.90;;;12.70;99.90;;;;;;5057252;28;20439;-40
2022/05/06 00:40:58;;;;;;;8.70;5.43;;;12.60;99.90;;;;;;5056766;28;20537;-39
2022/05/06 00:43:26;;;;;;;7.57;4.80;;;12.60;99.90;;;;;;5057079;28;20490;-40
2022/05/06 00:45:54;;;;;;;7.90;4.40;;;12.60;99.90;;;;;;5056913;28;20443;-39
2022/05/06 00:48:24;;;;;;;8.90;4.60;;;12.70;99.90;;;;;;5056999;28;20487;-40
2022/05/06 00:50:52;;;;;;;6.90;4.50;;;12.70;99.90;;;;;;5057367;28;20478;-46
2022/05/06 00:53:19;;;;;;;7.47;4.80;;;12.60;99.90;;;;;;5057583;28;20505;-40
2022/05/06 00:55:46;;;;;;;9.43;5.13;;;12.60;99.90;;;;;;5056819;28;20797;-42
2022/05/06 00:58:15;;;;;;;12.13;4.23;;;12.50;99.90;;;;;;5056656;28;20439;-40
2022/05/06 01:00:43;;;;;;;6.93;4.80;;;12.60;99.90;;;;;;5056832;28;20479;-46
2022/05/06 01:03:10;;;;;;;5.80;4.97;;;12.60;99.90;;;;;;5056894;28;20496;-39
2022/05/06 01:05:36;;;;;;;9.77;5.07;;;12.50;99.90;;;;;;5056471;28;20532;-41
2022/05/06 01:08:03;;;;;;;7.03;4.77;;;12.40;99.90;;;;;;5057063;28;20509;-48
2022/05/06 01:10:30;;;;;;;6.80;5.40;;;12.40;99.90;;;;;;5056904;28;20883;-41
2022/05/06 01:13:00;;;;;;;10.20;5.90;;;12.30;99.90;;;;;;5056465;28;20447;-40
2022/05/06 01:15:28;;;;;;;9.13;5.63;;;12.30;99.90;;;;;;5056073;28;20940;-40
2022/05/06 01:17:58;;;;;;;7.23;4.90;;;12.30;99.90;;;;;;5056325;28;20525;-39
2022/05/06 01:20:26;;;;;;;11.03;5.47;;;12.30;99.90;;;;;;5056803;28;20942;-48
2022/05/06 01:22:56;;;;;;;8.33;5.80;;;12.30;99.90;;;;;;5057001;28;20482;-39
2022/05/06 01:25:26;;;;;;;13.03;5.80;;;12.30;99.90;;;;;;5056118;28;20566;-39
2022/05/06 01:27:56;;;;;;;5.40;4.50;;;12.30;99.90;;;;;;5055229;28;20479;-39
2022/05/06 01:30:31;;;;;;;12.20;5.60;;;12.30;99.90;;;;;;5056113;28;20865;-43
2022/05/06 01:32:59;;;;;;;13.00;4.30;;;12.30;99.90;;;;;;5055847;28;20431;-39
2022/05/06 01:35:28;;;;;;;8.10;6.20;;;12.30;99.90;;;;;;5055856;28;20528;-43
2022/05/06 01:38:03;;;;;;;8.07;5.27;;;12.30;99.90;;;;;;5056664;28;20448;-41
2022/05/06 01:40:34;;;;;;;8.87;5.60;;;12.30;99.90;;;;;;5055642;28;20482;-41
2022/05/06 01:43:03;;;;;;;11.07;5.97;;;12.30;99.90;;;;;;5055919;28;20839;-40
2022/05/06 01:45:33;;;;;;;7.30;5.13;;;12.30;99.90;;;;;;5055752;28;20792;-40
2022/05/06 01:48:03;;;;;;;12.50;4.53;;;12.30;99.90;;;;;;5055507;28;20479;-40
2022/05/06 01:50:31;;;;;;;6.33;4.87;;;12.30;99.90;;;;;;5055508;28;20487;-42
2022/05/06 01:53:00;;;;;;;6.93;4.77;;;12.30;99.90;;;;;;5055325;28;20467;-43
2022/05/06 01:55:30;;;;;;;8.20;5.53;;;12.30;99.90;;;;;;5057119;28;20524;-41
2022/05/06 01:57:57;;;;;;;12.93;5.67;;;12.30;99.90;;;;;;5055966;28;20447;-39
2022/05/06 02:00:24;;;;;;;9.50;5.83;;;12.30;99.90;;;;;;5055647;28;20463;-38
2022/05/06 02:02:55;;;;;;;7.30;5.10;;;12.30;99.90;;;;;;5055534;28;20440;-39
2022/05/06 02:05:22;;;;;;;7.33;4.90;;;12.30;99.90;;;;;;5055498;28;20446;-45
2022/05/06 02:07:50;;;;;;;7.07;5.20;;;12.30;99.90;;;;;;5055214;28;20463;-42
2022/05/06 02:10:19;;;;;;;8.63;5.83;;;12.30;99.90;;;;;;5055127;28;20439;-56
2022/05/06 02:12:46;;;;;;;8.30;5.10;;;12.30;99.90;;;;;;5056778;28;20431;-40
2022/05/06 02:15:13;;;;;;;10.60;6.00;;;12.30;99.90;;;;;;5055402;28;20447;-38
2022/05/06 02:17:41;;;;;;;7.60;5.27;;;12.20;99.90;;;;;;5055265;28;20451;-40
2022/05/06 02:20:10;;;;;;;12.90;6.40;;;12.30;99.90;;;;;;5054669;28;20776;-41
2022/05/06 02:22:42;;;;;;;6.50;5.47;;;12.20;99.90;;;;;;5055062;28;20452;-38
2022/05/06 02:25:10;;;;;;;7.37;5.03;;;12.20;99.90;;;;;;5055140;28;20432;-39
2022/05/06 02:27:40;;;;;;;6.13;5.10;;;12.20;99.90;;;;;;5055866;28;20490;-41
2022/05/06 02:35:37;;;;;;;13.03;5.63;;;12.20;99.90;;;;;;5054659;28;20423;-39
2022/05/06 02:38:05;;;;;;;13.00;5.50;;;12.20;99.90;;;;;;5054923;28;20880;-39
2022/05/06 02:40:40;;;;;;;7.27;5.37;;;12.10;99.90;;;;;;5053416;28;20506;-39
2022/05/06 02:43:08;;;;;;;7.30;4.80;;;12.10;99.90;;;;;;5055200;28;20431;-41
2022/05/06 02:45:35;;;;;;;8.53;5.50;;;12.10;99.90;;;;;;5055654;28;20462;-39
2022/05/06 02:48:03;;;;;;;9.73;5.47;;;12.10;99.90;;;;;;5054467;28;20968;-39
2022/05/06 02:50:30;;;;;;;9.70;5.30;;;12.10;99.90;;;;;;5054758;28;20510;-39
2022/05/06 02:52:57;;;;;;;7.40;5.33;;;12.00;99.90;;;;;;5054822;28;20451;-44
2022/05/06 02:55:24;;;;;;;5.70;5.10;;;12.10;99.90;;;;;;5053951;28;20455;-41
2022/05/06 02:57:52;;;;;;;6.80;5.17;;;12.10;99.90;;;;;;5055030;28;20446;-41
2022/05/06 03:00:21;;;;;;;6.97;5.23;;;12.00;99.90;;;;;;5054642;28;20458;-39
2022/05/06 03:02:48;;;;;;;10.93;5.50;;;12.10;99.90;;;;;;5054212;28;20911;-38
2022/05/06 03:05:15;;;;;;;9.07;4.80;;;12.10;99.90;;;;;;5054587;28;20459;-41
2022/05/06 03:07:42;;;;;;;13.37;5.13;;;12.00;99.90;;;;;;5054501;28;20487;-40
2022/05/06 03:10:11;;;;;;;14.70;6.60;;;12.00;99.90;;;;;;5054826;28;20451;-41
2022/05/06 03:12:41;;;;;;;9.40;5.80;;;12.10;99.90;;;;;;5054501;28;20462;-50
2022/05/06 03:15:08;;;;;;;10.63;5.90;;;12.00;99.90;;;;;;5055495;28;20447;-40
2022/05/06 03:17:36;;;;;;;7.93;6.17;;;12.10;99.90;;;;;;5054518;28;20471;-39
2022/05/06 03:20:07;;;;;;;6.37;5.30;;;12.10;99.90;;;;;;5054475;28;20443;-40
2022/05/06 03:22:38;;;;;;;9.07;5.07;;;12.10;99.90;;;;;;5054267;28;20487;-40
2022/05/06 03:25:06;;;;;;;9.70;6.00;;;12.10;99.90;;;;;;5054658;28;20432;-39
2022/05/06 03:30:19;;;;;;;9.90;5.70;;;12.10;99.90;;;;;;5054487;28;20477;-40
2022/05/06 03:32:47;;;;;;;7.43;5.43;;;12.00;99.90;;;;;;5054307;28;20485;-40
2022/05/06 03:35:14;;;;;;;7.63;5.50;;;12.00;99.90;;;;;;5054277;28;20749;-40
2022/05/06 03:37:40;;;;;;;8.40;4.83;;;12.00;99.90;;;;;;5054286;28;20475;-39
2022/05/06 03:40:11;;;;;;;10.10;4.93;;;12.00;99.90;;;;;;5054107;28;20451;-40
2022/05/06 03:42:38;;;;;;;16.97;5.20;;;12.00;99.90;;;;;;5054328;28;20475;-41
2022/05/06 03:45:09;;;;;;;11.23;5.53;;;12.00;99.90;;;;;;5054475;28;20513;-40
2022/05/06 03:47:36;;;;;;;8.37;6.00;;;11.90;99.90;;;;;;5054737;28;20586;-54
2022/05/06 03:52:50;;;;;;;7.90;5.10;;;12.00;99.90;;;;;;5057705;28;20526;-39
2022/05/06 03:55:17;;;;;;;12.10;7.03;;;12.00;99.90;;;;;;5057860;28;20459;-40
2022/05/06 03:57:44;;;;;;;6.87;5.40;;;12.00;99.90;;;;;;5057917;28;20545;-39
2022/05/06 04:00:12;;;;;;;8.57;6.00;;;12.00;99.90;;;;;;5057811;28;20550;-39
2022/05/06 04:02:38;;;;;;;12.97;6.60;;;12.00;99.90;;;;;;5057672;28;20471;-39
2022/05/06 04:05:08;;;;;;;9.70;7.50;;;12.00;99.90;;;;;;5059154;28;20447;-52
2022/05/06 04:07:34;;;;;;;9.83;6.47;;;12.00;99.90;;;;;;5057853;28;20954;-41
2022/05/06 04:10:01;;;;;;;8.27;7.47;;;12.10;99.90;;;;;;5057780;28;20447;-40
2022/05/06 04:12:28;;;;;;;6.53;5.73;;;12.10;99.90;;;;;;5058528;28;20524;-40
2022/05/06 04:14:54;;;;;;;9.57;6.07;;;12.10;99.90;;;;;;5058192;28;20452;-46
2022/05/06 04:17:24;;;;;;;8.20;5.77;;;12.10;99.90;;;;;;5057455;28;20825;-39
2022/05/06 04:25:22;;;;;;;9.10;5.60;;;12.10;99.90;;;;;;5057249;28;20414;-40
2022/05/06 04:27:53;;;;;;;11.17;6.37;;;12.20;99.90;;;;;;5057190;28;20474;-40
2022/05/06 04:30:23;;;;;;;9.67;6.37;;;12.20;99.90;;;;;;5057340;28;20493;-41
2022/05/06 04:32:49;;;;;;;9.10;6.43;;;12.20;99.90;;;;;;5056766;28;20482;-40
2022/05/06 04:35:16;;;;;;;16.67;5.90;;;12.20;99.90;;;;;;5057031;28;20442;-39
2022/05/06 04:37:44;;;;;;;8.73;6.40;;;12.20;99.90;;;;;;5057872;28;20493;-41
2022/05/06 04:40:12;;;;;;;9.70;6.20;;;12.30;99.90;;;;;;5056886;28;20483;-38
2022/05/06 04:42:45;;;;;;;10.50;5.67;;;12.30;99.90;;;;;;5056919;28;20479;-39
2022/05/06 04:45:12;;;;;;;7.97;6.43;;;12.40;99.90;;;;;;5058122;28;20522;-45
2022/05/06 04:47:38;;;;;;;9.20;6.90;;;12.30;99.90;;;;;;5057767;28;20536;-41
2022/05/06 04:50:08;;;;;;;12.83;6.87;;;12.40;99.90;;;;;;5056500;28;20955;-41
2022/05/06 04:52:35;;;;;;;9.27;6.80;;;12.40;99.90;;;;;;5056811;28;20538;-40
2022/05/06 04:55:04;;;;;;;10.23;6.87;;;12.40;99.90;;;;;;5056594;28;20498;-40
2022/05/06 04:57:31;;;;;;;10.23;7.00;;;12.30;99.90;;;;;;5056578;28;20945;-40
2022/05/06 04:59:57;;;;;;;13.80;7.53;;;12.40;99.90;;;;;;5056719;28;20462;-40
2022/05/06 05:02:26;;;;;;;12.07;5.50;;;12.40;99.90;;;;;;5055758;28;20478;-41
2022/05/06 05:04:56;;;;;;;9.10;6.63;;;12.40;99.90;;;;;;5056616;28;20432;-39
2022/05/06 05:07:23;;;;;;;8.90;6.30;;;12.40;99.90;;;;;;5056589;28;20440;-40
2022/05/06 05:09:50;;;;;;;9.20;7.23;;;12.50;99.90;;;;;;5056336;28;20479;-40
2022/05/06 05:12:18;;;;;;;13.57;7.50;;;12.50;99.90;;;;;;5057095;28;20447;-40
2022/05/06 05:14:45;;;;;;;9.80;8.10;;;12.60;99.90;;;;;;5056475;28;20781;-40
2022/05/06 05:17:12;;;;;;;9.83;6.60;;;12.60;99.90;;;;;;5056273;28;20451;-42
2022/05/06 05:19:39;;;;;;;13.30;7.67;;;12.70;99.90;;;;;;5056238;28;20481;-41
2022/05/06 05:22:06;;;;;;;9.70;6.73;;;12.70;99.90;;;;;;5056167;28;20542;-42
2022/05/06 05:24:33;;;;;;;8.80;6.77;;;12.80;99.90;;;;;;5056181;28;20475;-39
2022/05/06 05:27:00;;;;;;;12.33;7.20;;;12.90;99.90;;;;;;5056784;28;20459;-49
2022/05/06 05:29:28;;;;;;;10.03;7.70;;;12.90;99.90;;;;;;5056492;28;20495;-41
2022/05/06 05:31:56;;;;;;;13.00;6.87;;;13.00;99.90;;;;;;5056036;28;20451;-44
2022/05/06 05:34:23;;;;;;;8.83;6.57;;;13.20;99.90;;;;;;5056094;28;20517;-43
2022/05/06 05:36:50;;;;;;;8.17;5.77;;;13.20;99.90;;;;;;5055956;28;20451;-42
2022/05/06 05:39:17;;;;;;;9.80;7.17;;;13.30;99.90;;;;;;5055611;28;20475;-41
2022/05/06 05:41:43;;;;;;;10.50;6.33;;;13.30;99.90;;;;;;5055885;28;20442;-42
2022/05/06 05:49:36;;;;;;;12.13;7.73;;;13.50;99.90;;;;;;5055560;28;20493;-39
2022/05/06 05:52:04;;;;;;;14.97;7.57;;;13.50;99.90;;;;;;5055878;28;20485;-40
2022/05/06 05:54:30;;;;;;;14.30;7.83;;;13.60;99.90;;;;;;5055833;28;20794;-40
2022/05/06 05:56:57;;;;;;;10.47;7.10;;;13.70;99.90;;;;;;5055725;28;20447;-41
2022/05/06 05:59:24;;;;;;;15.67;7.03;;;13.70;99.90;;;;;;5055770;28;20471;-41
2022/05/06 06:01:52;;;;;;;10.10;6.70;;;13.80;99.90;;;;;;5055839;28;20452;-44
2022/05/06 06:04:19;;;;;;;8.87;7.20;;;13.90;99.90;;;;;;5055746;28;20541;-42
2022/05/06 06:06:45;;;;;;;10.63;6.83;;;13.90;99.90;;;;;;5055423;28;20459;-41
2022/05/06 06:09:12;;;;;;;7.00;6.20;;;13.90;99.90;;;;;;5055114;28;20803;-40
2022/05/06 06:11:39;;;;;;;9.23;6.40;;;14.00;99.90;;;;;;5055315;28;20451;-42
2022/05/06 06:14:06;;;;;;;9.83;8.10;;;14.10;99.90;;;;;;5055100;28;20479;-39
2022/05/06 06:16:33;;;;;;;10.80;5.20;;;14.10;99.90;;;;;;5055524;28;20526;-40
2022/05/06 06:19:01;;;;;;;12.30;7.07;;;14.20;99.90;;;;;;5055465;28;20467;-40
2022/05/06 06:21:28;;;;;;;21.20;5.93;;;14.30;99.90;;;;;;5055107;28;20431;-41
2022/05/06 06:23:55;;;;;;;7.43;5.53;;;14.30;99.90;;;;;;5055230;28;20471;-41
2022/05/06 06:26:21;;;;;;;14.53;7.80;;;14.40;99.90;;;;;;5055271;28;20520;-50
2022/05/06 06:28:48;;;;;;;9.10;5.77;;;14.40;99.90;;;;;;5055715;28;20498;-41
2022/05/06 06:31:15;;;;;;;11.43;5.53;;;14.50;99.90;;;;;;5055459;28;20443;-42
2022/05/06 06:33:42;;;;;;;8.07;5.70;;;14.60;99.90;;;;;;5054838;28;20458;-41
2022/05/06 06:36:11;;;;;;;9.47;7.03;;;14.70;99.90;;;;;;5055225;28;20510;-39
2022/05/06 06:38:38;;;;;;;7.43;5.67;;;14.70;99.90;;;;;;5054899;28;20494;-41
2022/05/06 06:41:05;;;;;;;7.87;5.90;;;14.90;99.90;;;;;;5054617;28;20523;-40
2022/05/06 06:43:32;;;;;;;11.63;6.30;;;14.90;99.90;;;;;;5054689;28;20506;-41
2022/05/06 06:45:58;;;;;;;7.00;6.10;;;15.00;99.90;;;;;;5055488;28;20892;-50
2022/05/06 06:48:26;;;;;;;8.53;6.40;;;15.10;99.90;;;;;;5054859;28;20455;-41
2022/05/06 06:50:53;;;;;;;14.33;6.37;;;15.20;99.90;;;;;;5054951;28;20447;-41
2022/05/06 06:53:21;;;;;;;15.47;6.30;;;15.20;99.90;;;;;;5054852;28;20463;-46
2022/05/06 06:55:48;;;;;;;9.03;6.40;;;15.30;99.90;;;;;;5054762;28;20538;-40
2022/05/06 06:58:16;;;;;;;16.00;6.20;;;15.40;99.90;;;;;;5054966;28;20504;-41
2022/05/06 07:00:43;;;;;;;10.27;6.43;;;15.50;99.90;;;;;;5054826;28;20459;-42
2022/05/06 07:03:10;;;;;;;9.73;6.57;;;15.60;99.90;;;;;;5056194;28;20446;-46
2022/05/06 07:05:37;;;;;;;13.17;6.67;;;15.60;99.90;;;;;;5054858;28;20496;-41
2022/05/06 07:13:34;;;;;;;11.93;5.83;;;15.90;99.90;;;;;;5054507;28;20420;-42
2022/05/06 07:16:01;;;;;;;13.77;6.20;;;16.00;99.90;;;;;;5054369;28;20485;-40
2022/05/06 07:18:27;;;;;;;10.50;6.83;;;16.20;99.90;;;;;;5055176;28;20443;-45
2022/05/06 07:20:54;;;;;;;12.03;6.63;;;16.30;99.90;;;;;;5055519;28;20483;-41
2022/05/06 07:23:21;;;;;;;14.03;7.30;;;16.50;99.90;;;;;;5054658;28;20528;-40
2022/05/06 07:25:49;;;;;;;10.07;7.27;;;16.60;99.90;;;;;;5054876;28;20483;-42
2022/05/06 07:28:16;;;;;;;12.20;6.87;;;16.70;99.90;;;;;;5058749;28;20944;-41
2022/05/06 07:30:42;;;;;;;10.77;7.23;;;16.90;99.90;;;;;;5059140;28;20478;-40
2022/05/06 07:33:09;;;;;;;13.00;6.27;;;17.00;99.90;;;;;;5058739;28;20447;-40
2022/05/06 07:35:38;;;;;;;19.17;6.67;;;17.10;99.90;;;;;;5059328;28;20529;-48
2022/05/06 07:38:05;;;;;;;10.40;5.80;;;17.40;99.90;;;;;;5058684;28;20447;-40
2022/05/06 07:40:31;;;;;;;11.77;6.90;;;17.60;99.90;;;;;;5057991;28;20527;-41
2022/05/06 07:42:59;;;;;;;10.03;5.87;;;17.90;99.90;;;;;;5058092;28;20512;-41
2022/05/06 07:45:26;;;;;;;9.30;5.70;;;18.80;99.90;;;;;;5058097;28;20956;-43
2022/05/06 07:47:53;;;;;;;14.17;7.63;;;20.10;99.90;;;;;;5057982;28;20443;-41
2022/05/06 07:50:19;;;;;;;10.93;6.20;;;22.00;99.90;;;;;;5057822;28;20486;-43
2022/05/06 07:52:46;;;;;;;10.70;7.00;;;23.20;93.60;;;;;;5059137;28;20485;-54
2022/05/06 07:55:15;;;;;;;10.20;7.93;;;24.00;90.50;;;;;;5058035;28;20467;-45
2022/05/06 07:57:41;;;;;;;7.40;5.57;;;24.90;82.90;;;;;;5057450;28;20897;-43
2022/05/06 08:00:10;;;;;;;10.53;8.00;;;25.60;76.50;;;;;;5057640;28;20479;-40
2022/05/06 08:05:25;;;;;;;11.83;6.87;;;25.00;72.60;;;;;;5057460;28;20923;-44
2022/05/06 08:07:52;;;;;;;8.20;6.60;;;24.70;71.50;;;;;;5057811;28;20459;-43
2022/05/06 08:10:19;;;;;;;7.50;6.33;;;24.20;71.40;;;;;;5057356;28;20989;-46
2022/05/06 08:12:46;;;;;;;9.67;6.30;;;23.60;71.90;;;;;;5057327;28;20885;-45
2022/05/06 08:15:15;;;;;;;10.37;6.90;;;23.10;73.60;;;;;;5057468;28;20509;-41
2022/05/06 08:17:41;;;;;;;16.53;8.23;;;22.70;75.60;;;;;;5057414;28;20448;-45
2022/05/06 08:20:09;;;;;;;14.90;7.27;;;22.60;76.50;;;;;;5057374;28;20467;-46
2022/05/06 08:22:37;;;;;;;9.53;6.40;;;22.20;77.00;;;;;;5057395;28;20451;-45
2022/05/06 08:25:04;;;;;;;9.77;6.70;;;21.60;79.20;;;;;;5057874;28;20561;-42
2022/05/06 08:27:36;;;;;;;11.33;8.10;;;21.40;81.70;;;;;;5057907;28;20451;-43
2022/05/06 08:30:05;;;;;;;9.70;7.07;;;22.20;80.10;;;;;;5057329;28;20463;-45
2022/05/06 08:32:33;;;;;;;8.90;6.30;;;23.10;76.50;;;;;;5057272;28;20434;-43
2022/05/06 08:35:00;;;;;;;9.97;5.57;;;24.10;73.40;;;;;;5057453;28;20451;-43
2022/05/06 08:37:27;;;;;;;7.90;5.97;;;25.40;69.70;;;;;;5057363;28;20439;-43
2022/05/06 08:39:53;;;;;;;5.97;5.33;;;26.20;65.70;;;;;;5056115;28;20463;-42
2022/05/06 08:42:22;;;;;;;8.47;6.07;;;26.30;64.20;;;;;;5056297;28;20512;-41
2022/05/06 08:50:54;;;;;;;5.80;5.20;;;28.40;58.00;;;;;;4994174;28;20493;-41
2022/05/06 08:53:22;;;;;;;7.00;5.50;;;29.00;55.60;;;;;;4994518;28;20465;-46
2022/05/06 08:55:50;;;;;;;8.70;5.73;;;29.20;55.00;;;;;;5032069;28;20555;-42
2022/05/06 08:58:18;;;;;;;11.30;5.70;;;28.80;53.60;;;;;;5056592;28;20458;-43
2022/05/06 09:00:44;;;;;;;5.30;4.80;;;27.80;54.70;;;;;;5056242;28;20480;-43
2022/05/06 09:03:14;;;;;;;7.93;4.80;;;26.40;55.90;;;;;;5055785;28;20439;-44
2022/05/06 09:05:52;;;;;;;6.87;5.00;;;25.20;57.90;;;;;;5056451;28;20486;-45
2022/05/06 09:08:19;;;;;;;5.53;4.87;;;24.90;59.70;;;;;;5055878;28;20458;-45
2022/05/06 09:11:00;;;;;;;6.30;4.73;;;25.50;59.10;;;;;;5055946;28;20491;-45
2022/05/06 09:13:27;;;;;;;6.90;4.13;;;26.60;56.90;;;;;;5056579;28;20443;-45
2022/05/06 09:19:11;;;;;;;8.03;4.70;;;28.30;55.00;;;;;;5056148;28;20410;-46
2022/05/06 09:21:38;;;;;;;5.43;3.60;;;28.80;52.20;;;;;;5055844;28;20469;-46
2022/05/06 09:24:18;;;;;;;6.37;4.27;;;28.80;50.40;;;;;;5056173;28;20443;-51
2022/05/06 09:26:58;;;;;;;5.73;3.90;;;28.80;50.70;;;;;;5056360;28;20467;-45
2022/05/06 09:29:29;;;;;;;7.20;4.77;;;29.30;51.30;;;;;;5056305;28;20459;-43
2022/05/06 09:31:56;;;;;;;5.13;4.37;;;29.90;50.20;;;;;;5055876;28;20908;-49
2022/05/06 09:34:29;;;;;;;6.60;4.37;;;29.40;50.80;;;;;;5055968;28;20962;-43
2022/05/06 09:36:55;;;;;;;5.10;4.60;;;28.10;51.30;;;;;;5056072;28;20563;-41
2022/05/06 09:39:22;;;;;;;10.53;5.33;;;26.70;53.30;;;;;;5055844;28;20447;-38
2022/05/06 09:42:01;;;;;;;5.90;4.57;;;25.50;56.00;;;;;;5055817;28;20517;-39
2022/05/06 09:44:27;;;;;;;7.50;4.73;;;24.50;57.60;;;;;;5056038;28;20481;-42
2022/05/06 09:47:08;;;;;;;8.20;4.30;;;24.00;59.70;;;;;;5055678;28;20481;-42
2022/05/06 09:49:40;;;;;;;10.60;4.77;;;24.70;58.50;;;;;;5055096;28;20510;-43
2022/05/06 09:52:12;;;;;;;5.90;4.10;;;25.50;56.60;;;;;;5055713;28;20467;-42
2022/05/06 09:54:41;;;;;;;5.10;4.10;;;26.60;55.40;;;;;;5055576;28;20463;-41
2022/05/06 09:57:08;;;;;;;5.70;3.37;;;27.40;54.10;;;;;;5055589;28;20479;-42
2022/05/06 09:59:36;;;;;;;4.17;3.37;;;27.90;52.50;;;;;;5055606;28;20540;-44
2022/05/06 10:02:04;;;;;;;3.53;3.20;;;27.30;51.60;;;;;;5067225;28;20785;-42
2022/05/06 10:04:31;;;;;;;4.63;4.00;;;26.50;52.30;;;;;;5077409;28;20457;-40
2022/05/06 10:07:02;;;;;;;3.93;3.53;;;26.40;53.70;;;;;;5077380;28;20463;-38
2022/05/06 10:09:32;;;;;;;4.13;3.40;;;26.90;53.00;;;;;;5077236;28;20458;-43
2022/05/06 10:12:05;;;;;;;6.10;3.33;;;27.60;52.60;;;;;;5077557;28;20485;-41
2022/05/06 10:14:36;;;;;;;3.50;3.20;;;28.10;52.10;;;;;;5077682;28;20412;-41
2022/05/06 10:17:03;;;;;;;4.50;3.97;;;28.40;51.00;;;;;;5077554;28;20471;-42
2022/05/06 10:19:46;;;;;;;5.53;3.63;;;28.50;50.40;;;;;;5077094;28;20443;-40
2022/05/06 10:22:16;;;;;;;3.77;3.37;;;28.50;49.90;;;;;;5077151;28;20458;-42
2022/05/06 10:24:49;;;;;;;3.57;3.27;;;28.60;49.70;;;;;;5077291;28;20462;-42
2022/05/06 10:32:25;;;;;;;3.77;2.80;;;28.50;49.80;;;;;;5077169;28;20494;-41
2022/05/06 10:33:13;;;;;;;3.97;3.57;;;27.70;50.00;;;;;;5077451;28;20457;-39
2022/05/06 10:35:48;;;;;;;5.37;3.17;;;27.30;50.80;;;;;;5077685;28;20455;-50
2022/05/06 10:38:24;;;;;;;3.93;2.93;;;27.40;51.70;;;;;;5077687;28;20438;-41
2022/05/06 10:40:57;;;;;;;3.23;2.60;;;27.30;51.90;;;;;;5077522;28;20447;-39
2022/05/06 10:43:51;;;;;;;4.53;3.50;;;27.20;52.40;;;;;;5076409;28;20443;-38
2022/05/06 10:46:39;;;;;;;4.73;3.27;;;26.80;51.70;;;;;;5077031;28;20489;-39
2022/05/06 10:49:47;;;;;;;2.90;2.57;;;26.60;51.60;;;;;;5076750;28;20446;-39
2022/05/06 10:52:39;;;;;;;3.60;2.10;;;26.50;51.60;;;;;;5076949;28;20450;-40
2022/05/06 10:55:13;;;;;;;4.33;2.47;;;26.20;51.00;;;;;;5076416;28;20453;-40
2022/05/06 10:57:51;;;;;;;8.27;3.23;;;25.90;51.60;;;;;;5076457;28;20467;-40
2022/05/06 11:00:18;;;;;;;3.30;2.57;;;25.70;52.30;;;;;;5076487;28;20431;-42
2022/05/06 11:02:45;;;;;;;3.67;2.13;;;25.50;53.00;;;;;;5080604;28;20493;-37
2022/05/06 11:05:14;;;;;;;2.87;2.30;;;25.20;52.00;;;;;;5081080;28;20435;-39
2022/05/06 11:07:42;;;;;;;4.87;2.70;;;25.10;53.20;;;;;;5080664;28;20474;-40
2022/05/06 11:10:12;;;;;;;4.87;3.10;;;24.90;53.80;;;;;;5080616;28;20471;-39
2022/05/06 11:12:43;;;;;;;3.33;2.70;;;24.80;53.60;;;;;;5080434;28;20463;-40
2022/05/06 11:15:13;;;;;;;2.97;2.20;;;24.80;54.40;;;;;;5080646;28;20415;-38
2022/05/06 11:17:40;;;;;;;3.67;2.47;;;24.80;54.40;;;;;;5080750;28;20526;-40
2022/05/06 11:20:17;;;;;;;1.97;1.77;;;24.70;53.50;;;;;;5080524;28;20490;-42
2022/05/06 11:22:58;;;;;;;2.53;1.67;;;24.50;53.20;;;;;;5080665;28;20550;-44
2022/05/06 11:25:33;;;;;;;7.27;2.17;;;24.20;53.00;;;;;;5080963;28;20399;-41
2022/05/06 11:28:02;;;;;;;4.53;2.37;;;23.90;54.50;;;;;;5080659;28;20457;-42
2022/05/06 11:30:30;;;;;;;3.07;2.60;;;23.90;54.00;;;;;;5080490;28;20495;-43
2022/05/06 11:33:02;;;;;;;2.70;1.90;;;24.00;54.90;;;;;;5080614;28;20522;-37
2022/05/06 11:35:33;;;;;;;3.07;2.37;;;23.90;54.30;;;;;;5080437;28;20494;-43
2022/05/06 11:38:05;;;;;;;4.10;2.07;;;23.90;55.10;;;;;;5080729;28;20478;-40
2022/05/06 11:40:35;;;;;;;4.60;2.47;;;23.80;55.10;;;;;;5080946;28;20499;-40
2022/05/06 11:43:20;;;;;;;2.20;1.87;;;23.70;55.80;;;;;;5080378;28;20467;-44
2022/05/06 11:48:40;;;;;;;2.40;2.17;;;22.70;57.20;;;;;;5080798;28;20470;-39
2022/05/06 11:51:07;;;;;;;3.70;2.87;;;22.50;57.70;;;;;;5080538;28;20479;-39
2022/05/06 11:53:35;;;;;;;3.87;2.57;;;22.50;57.20;;;;;;5080520;28;20467;-39
2022/05/06 11:56:04;;;;;;;3.20;2.33;;;22.60;57.50;;;;;;5080569;28;20436;-36
2022/05/06 11:58:33;;;;;;;5.60;2.93;;;22.70;57.00;;;;;;5080271;28;20469;-37
2022/05/06 12:01:01;;;;;;;4.77;2.57;;;22.90;57.60;;;;;;5080391;28;20447;-37
2022/05/06 12:03:30;;;;;;;4.70;3.00;;;23.00;57.80;;;;;;5079866;28;20474;-41
2022/05/06 12:06:06;;;;;;;4.23;2.70;;;23.10;57.20;;;;;;5080090;28;20446;-39
2022/05/06 12:08:36;;;;;;;2.60;2.37;;;23.20;56.60;;;;;;5079960;28;20466;-39
2022/05/06 12:11:06;;;;;;;3.47;2.40;;;23.20;56.30;;;;;;5079807;28;20471;-41
2022/05/06 12:13:40;;;;;;;4.10;1.80;;;23.40;55.60;;;;;;5079152;28;20477;-40
2022/05/06 12:16:09;;;;;;;2.70;2.20;;;23.60;54.40;;;;;;5079797;28;20432;-39
2022/05/06 12:18:38;;;;;;;4.30;2.20;;;23.80;53.00;;;;;;5079518;28;20462;-39
2022/05/06 12:21:23;;;;;;;4.93;2.83;;;23.90;53.00;;;;;;5079975;28;20439;-42
2022/05/06 12:23:56;;;;;;;2.80;2.40;;;23.90;55.30;;;;;;5079576;28;20454;-42
2022/05/06 12:26:35;;;;;;;3.53;2.63;;;23.80;55.40;;;;;;5080074;28;20530;-40
2022/05/06 12:29:03;;;;;;;4.10;3.03;;;23.60;55.60;;;;;;5079927;28;20467;-42
2022/05/06 12:31:33;;;;;;;4.93;2.27;;;23.40;55.90;;;;;;5079505;28;20459;-42
2022/05/06 12:34:07;;;;;;;4.03;2.33;;;23.40;55.30;;;;;;5079272;28;20451;-43
2022/05/06 12:36:35;;;;;;;2.87;2.07;;;23.40;55.10;;;;;;5079751;28;20423;-41
2022/05/06 12:39:19;;;;;;;3.60;2.00;;;23.30;54.90;;;;;;5079178;28;20470;-38
2022/05/06 12:41:48;;;;;;;2.20;1.53;;;23.30;55.60;;;;;;5079703;28;20446;-41
2022/05/06 12:44:23;;;;;;;3.80;2.40;;;23.50;53.20;;;;;;5079595;28;20474;-44
2022/05/06 12:46:50;;;;;;;2.23;1.93;;;23.40;54.60;;;;;;5079993;28;20431;-35
2022/05/06 12:52:15;;;;;;;3.50;2.17;;;23.10;54.80;;;;;;5079531;28;20461;-45
2022/05/06 12:54:45;;;;;;;4.73;2.30;;;23.00;55.50;;;;;;5079378;28;20473;-40
2022/05/06 12:57:13;;;;;;;2.60;2.13;;;22.80;56.40;;;;;;5065838;28;20435;-39
2022/05/06 12:59:39;;;;;;;2.73;2.03;;;22.70;55.40;;;;;;5077143;28;20472;-44
2022/05/06 13:02:09;;;;;;;2.23;2.03;;;22.50;57.90;;;;;;5076438;28;20451;-38
2022/05/06 13:04:36;;;;;;;2.20;2.00;;;22.50;58.20;;;;;;5077110;28;20443;-38
2022/05/06 13:07:04;;;;;;;2.50;1.90;;;22.60;57.20;;;;;;5077444;28;20503;-39
2022/05/06 13:09:31;;;;;;;3.50;1.70;;;22.60;57.00;;;;;;5077465;28;20459;-42
2022/05/06 13:12:00;;;;;;;2.03;1.83;;;22.60;57.10;;;;;;5076194;28;20492;-48
2022/05/06 13:14:28;;;;;;;1.80;1.60;;;22.50;55.60;;;;;;5071308;28;20463;-39
2022/05/06 13:16:55;;;;;;;2.37;1.90;;;22.50;56.10;;;;;;5077060;28;20504;-43
2022/05/06 13:19:22;;;;;;;2.37;1.90;;;22.40;55.40;;;;;;5077351;28;20486;-41
2022/05/06 13:21:48;;;;;;;4.20;2.57;;;22.40;56.20;;;;;;5076831;28;20447;-36
2022/05/06 13:24:18;;;;;;;3.30;2.67;;;22.40;56.60;;;;;;5079276;28;20462;-41
2022/05/06 13:26:44;;;;;;;4.10;2.47;;;22.40;56.70;;;;;;5097161;28;20468;-41
2022/05/06 13:29:12;;;;;;;3.10;2.90;;;22.40;57.60;;;;;;5097155;28;20453;-41
2022/05/06 13:31:40;;;;;;;4.63;2.47;;;22.50;57.50;;;;;;5097049;28;20458;-38
2022/05/06 13:34:09;;;;;;;4.57;2.63;;;22.60;56.90;;;;;;5084812;28;20447;-40
2022/05/06 13:36:38;;;;;;;2.93;2.13;;;22.70;56.60;;;;;;5077054;28;20470;-41
2022/05/06 13:39:05;;;;;;;4.83;1.90;;;22.80;56.60;;;;;;5076151;28;20463;-38
2022/05/06 13:41:35;;;;;;;2.10;1.90;;;22.60;55.30;;;;;;5075939;28;20472;-38